Time;durP1;ratioP1;P1;durP2;ratioP2;P2;SDS_P1;SDS_P2;PMS_P1;PMS_P2;Temp;Humidity;BMP_temperature;BMP_pressure;BME280_temperature;BME280_humidity;BME280_pressure;Samples;Min_cycle;Max_cycle;Signal;HPM_P1;HPM_P2
2022/06/08 00:01:04;;;;;;;;;;;;;;;11.84;100.00;101047.47;5011344;28;19922;-32
2022/06/08 00:03:33;;;;;;;;;;;;;;;11.89;100.00;101046.56;5011927;28;20310;-35
2022/06/08 00:06:02;;;;;;;;;;;;;;;11.92;100.00;101044.00;5011479;28;19921;-36
2022/06/08 00:08:29;;;;;;;;;;;;;;;11.95;100.00;101043.41;5011225;28;20367;-31
2022/06/08 00:10:57;;;;;;;;;;;;;;;11.96;100.00;101031.06;5012006;28;19922;-35
2022/06/08 00:13:24;;;;;;;;;;;;;;;11.99;100.00;101038.81;5011112;28;19921;-33
2022/06/08 00:15:53;;;;;;;;;;;;;;;12.00;100.00;101029.31;5011814;28;20350;-33
2022/06/08 00:18:21;;;;;;;;;;;;;;;12.02;100.00;101029.84;5011971;28;19926;-33
2022/06/08 00:20:49;;;;;;;;;;;;;;;12.04;100.00;101019.16;5000710;28;19921;-36
2022/06/08 00:23:18;;;;;;;;;;;;;;;12.06;100.00;101010.47;5011680;28;19936;-31
2022/06/08 00:25:46;;;;;;;;;;;;;;;12.08;100.00;101011.00;5011855;28;19921;-31
2022/06/08 00:28:14;;;;;;;;;;;;;;;12.10;100.00;101005.09;5011084;28;20378;-32
2022/06/08 00:30:42;;;;;;;;;;;;;;;12.10;100.00;101007.91;5011834;28;19928;-29
2022/06/08 00:33:09;;;;;;;;;;;;;;;12.10;100.00;101002.31;5011234;28;20351;-31
2022/06/08 00:35:37;;;;;;;;;;;;;;;12.08;100.00;100997.84;5013539;28;19968;-31
2022/06/08 00:38:05;;;;;;;;;;;;;;;12.10;100.00;100996.72;5015791;28;19961;-36
2022/06/08 00:40:41;;;;;;;;;;;;;;;12.11;100.00;100990.00;5015168;28;19925;-32
2022/06/08 00:43:09;;;;;;;;;;;;;;;12.12;100.00;100988.84;5015468;28;19927;-38
2022/06/08 00:45:37;;;;;;;;;;;;;;;12.12;100.00;100988.84;5014631;28;19921;-29
2022/06/08 00:48:06;;;;;;;;;;;;;;;12.13;100.00;100984.91;5015004;28;19921;-33
2022/06/08 00:50:36;;;;;;;;;;;;;;;12.13;100.00;100980.16;5015702;28;19926;-27
2022/06/08 00:53:04;;;;;;;;;;;;;;;12.14;100.00;100970.63;5015483;28;19936;-35
2022/06/08 00:55:33;;;;;;;;;;;;;;;12.14;100.00;100973.44;5014674;28;19921;-34
2022/06/08 00:58:05;;;;;;;;;;;;;;;12.14;100.00;100967.00;5015718;28;19921;-37
2022/06/08 01:00:34;;;;;;;;;;;;;;;12.14;100.00;100965.03;5015657;28;19929;-32
2022/06/08 01:03:02;;;;;;;;;;;;;;;12.15;100.00;100963.06;5014614;28;19952;-30
2022/06/08 01:05:41;;;;;;;;;;;;;;;12.17;100.00;100958.00;5014079;28;19925;-35
2022/06/08 01:08:16;;;;;;;;;;;;;;;12.18;100.00;100959.66;5013882;28;20012;-34
2022/06/08 01:10:45;;;;;;;;;;;;;;;12.19;100.00;100958.53;5015381;28;20379;-30
2022/06/08 01:13:16;;;;;;;;;;;;;;;12.19;100.00;100948.13;5013908;28;19928;-38
2022/06/08 01:15:44;;;;;;;;;;;;;;;12.22;100.00;100949.50;5013336;28;20027;-31
2022/06/08 01:18:17;;;;;;;;;;;;;;;12.21;100.00;100948.66;5013628;28;19925;-33
2022/06/08 01:20:47;;;;;;;;;;;;;;;12.21;100.00;100937.47;5014167;28;19928;-33
2022/06/08 01:23:18;;;;;;;;;;;;;;;12.20;100.00;100941.41;5013178;28;19929;-30
2022/06/08 01:25:55;;;;;;;;;;;;;;;12.19;100.00;100939.75;5013502;28;19925;-29
2022/06/08 01:28:29;;;;;;;;;;;;;;;12.18;100.00;100937.28;5013755;28;20009;-31
2022/06/08 01:30:59;;;;;;;;;;;;;;;12.16;100.00;100933.97;5012999;28;19925;-35
2022/06/08 01:33:44;;;;;;;;;;;;;;;12.14;100.00;100930.63;5013562;28;19965;-31
2022/06/08 01:36:25;;;;;;;;;;;;;;;12.11;100.00;100926.47;5013738;28;19925;-31
2022/06/08 01:38:59;;;;;;;;;;;;;;;12.12;100.00;100922.53;5014508;28;19925;-36
2022/06/08 01:41:36;;;;;;;;;;;;;;;12.12;100.00;100918.91;5014650;28;19921;-32
2022/06/08 01:44:10;;;;;;;;;;;;;;;12.13;100.00;100917.78;5014154;28;20013;-34
2022/06/08 01:46:42;;;;;;;;;;;;;;;12.12;100.00;100911.34;5013744;28;19991;-34
2022/06/08 01:49:16;;;;;;;;;;;;;;;12.12;100.00;100905.75;5013148;28;19921;-30
2022/06/08 01:51:50;;;;;;;;;;;;;;;12.13;100.00;100901.00;5013786;28;19936;-32
2022/06/08 01:54:28;;;;;;;;;;;;;;;12.14;100.00;100894.28;5013228;28;19930;-30
2022/06/08 01:57:02;;;;;;;;;;;;;;;12.16;100.00;100892.00;5013334;28;20353;-29
2022/06/08 01:59:38;;;;;;;;;;;;;;;12.18;100.00;100895.31;5012390;28;19921;-34
2022/06/08 02:02:10;;;;;;;;;;;;;;;12.20;100.00;100888.25;5013004;28;20272;-31
2022/06/08 02:04:41;;;;;;;;;;;;;;;12.22;100.00;100888.78;5012749;28;19929;-37
2022/06/08 02:07:17;;;;;;;;;;;;;;;12.24;100.00;100880.91;5012793;28;19925;-36
2022/06/08 02:09:49;;;;;;;;;;;;;;;12.27;100.00;100885.06;5014286;28;20280;-32
2022/06/08 02:12:20;;;;;;;;;;;;;;;12.28;100.00;100879.16;5012120;28;20387;-37
2022/06/08 02:14:52;;;;;;;;;;;;;;;12.30;100.00;100865.69;5012415;28;20353;-33
2022/06/08 02:17:23;;;;;;;;;;;;;;;12.33;100.00;100869.81;5012773;28;20024;-35
2022/06/08 02:19:55;;;;;;;;;;;;;;;12.35;100.00;100856.34;5012208;28;19929;-33
2022/06/08 02:22:28;;;;;;;;;;;;;;;12.36;100.00;100844.03;5012664;28;19948;-31
2022/06/08 02:24:59;;;;;;;;;;;;;;;12.36;100.00;100839.25;5001721;28;19975;-28
2022/06/08 02:27:30;;;;;;;;;;;;;;;12.38;100.00;100847.34;5011780;28;20023;-37
2022/06/08 02:30:04;;;;;;;;;;;;;;;12.39;100.00;100846.19;5012786;28;19975;-30
2022/06/08 02:35:22;;;;;;;;;;;;;;;12.40;100.00;100845.88;5001846;28;19921;-28
2022/06/08 02:37:52;;;;;;;;;;;;;;;12.41;100.00;100836.34;5001904;28;20433;-34
2022/06/08 02:40:25;;;;;;;;;;;;;;;12.42;100.00;100834.34;5013111;28;19960;-31
2022/06/08 02:42:57;;;;;;;;;;;;;;;12.42;100.00;100834.34;5012385;28;20390;-36
2022/06/08 02:45:28;;;;;;;;;;;;;;;12.43;100.00;100827.63;5013623;28;19955;-33
2022/06/08 02:47:58;;;;;;;;;;;;;;;12.42;100.00;100828.75;5011496;28;19921;-32
2022/06/08 02:50:28;;;;;;;;;;;;;;;12.42;100.00;100825.97;5012235;28;19948;-36
2022/06/08 02:53:07;;;;;;;;;;;;;;;12.42;100.00;100820.38;5013432;28;20302;-31
2022/06/08 02:55:39;;;;;;;;;;;;;;;12.41;100.00;100821.50;5008477;28;19931;-27
2022/06/08 02:58:10;;;;;;;;;;;;;;;12.41;100.00;100819.53;5013092;28;19921;-32
2022/06/08 03:00:45;;;;;;;;;;;;;;;12.42;100.00;100812.81;5011869;28;19921;-28
2022/06/08 03:03:15;;;;;;;;;;;;;;;12.45;100.00;100808.56;5008381;28;19922;-34
2022/06/08 03:05:45;;;;;;;;;;;;;;;12.49;100.00;100811.56;5010913;28;19971;-35
2022/06/08 03:08:15;;;;;;;;;;;;;;;12.51;100.00;100810.09;5011393;28;19925;-35
2022/06/08 03:10:46;;;;;;;;;;;;;;;12.54;100.00;100805.84;5012785;28;19928;-33
2022/06/08 03:13:24;;;;;;;;;;;;;;;12.57;100.00;100808.88;5012815;28;19925;-33
2022/06/08 03:15:54;;;;;;;;;;;;;;;12.57;100.00;100805.22;5010728;28;19932;-30
2022/06/08 03:18:22;;;;;;;;;;;;;;;12.58;100.00;100804.09;5011218;28;19968;-31
2022/06/08 03:20:51;;;;;;;;;;;;;;;12.58;100.00;100804.09;5011375;28;20462;-32
2022/06/08 03:23:24;;;;;;;;;;;;;;;12.58;100.00;100792.91;5010509;28;20282;-31
2022/06/08 03:25:53;;;;;;;;;;;;;;;12.58;100.00;100799.31;5011560;28;19921;-36
2022/06/08 03:28:21;;;;;;;;;;;;;;;12.60;100.00;100796.19;5011548;28;20379;-32
2022/06/08 03:30:51;;;;;;;;;;;;;;;12.62;100.00;100791.94;5010827;28;19928;-31
2022/06/08 03:33:19;;;;;;;;;;;;;;;12.64;100.00;100783.22;5011437;28;20028;-33
2022/06/08 03:35:48;;;;;;;;;;;;;;;12.67;100.00;100785.38;5010985;28;19922;-33
2022/06/08 03:38:19;;;;;;;;;;;;;;;12.71;100.00;100794.81;5010196;28;20441;-33
2022/06/08 03:40:48;;;;;;;;;;;;;;;12.73;100.00;100789.75;5009778;28;19925;-35
2022/06/08 03:43:18;;;;;;;;;;;;;;;12.77;100.00;100794.41;5010390;28;19960;-38
2022/06/08 03:45:49;;;;;;;;;;;;;;;12.82;100.00;100790.63;5009780;28;19936;-35
2022/06/08 03:48:16;;;;;;;;;;;;;;;12.87;100.00;100789.69;5012425;28;19949;-33
2022/06/08 03:50:45;;;;;;;;;;;;;;;12.91;100.00;100791.53;5010191;28;19931;-32
2022/06/08 03:53:16;;;;;;;;;;;;;;;12.97;100.00;100797.88;5012451;28;20008;-36
2022/06/08 03:55:45;;;;;;;;;;;;;;;13.02;100.00;100794.91;5012322;28;19968;-35
2022/06/08 03:58:13;;;;;;;;;;;;;;;13.05;100.00;100785.88;5011395;28;20397;-30
2022/06/08 04:00:44;;;;;;;;;;;;;;;13.08;100.00;100777.69;5010999;28;19925;-32
2022/06/08 04:03:17;;;;;;;;;;;;;;;13.13;100.00;100776.72;5017014;28;19925;-32
2022/06/08 04:05:45;;;;;;;;;;;;;;;13.17;100.00;100780.59;4998626;28;19936;-30
2022/06/08 04:08:19;;;;;;;;;;;;;;;13.21;100.00;100778.78;5011028;28;19922;-34
2022/06/08 04:10:53;;;;;;;;;;;;;;;13.28;100.00;100781.16;5010670;28;19928;-31
2022/06/08 04:13:22;;;;;;;;;;;;;;;13.31;100.00;100766.50;5009791;28;19960;-32
2022/06/08 04:15:56;;;;;;;;;;;;;;;13.35;100.00;100765.53;5010930;28;19992;-27
2022/06/08 04:18:31;;;;;;;;;;;;;;;13.39;100.00;100766.53;5009757;28;20052;-29
2022/06/08 04:21:02;;;;;;;;;;;;;;;13.47;100.00;100776.16;5010900;28;20054;-29
2022/06/08 04:23:43;;;;;;;;;;;;;;;13.55;100.00;100771.75;5010523;28;20075;-36
2022/06/08 04:26:11;;;;;;;;;;;;;;;13.60;100.00;100771.59;5009991;28;19921;-34
2022/06/08 04:28:41;;;;;;;;;;;;;;;13.65;100.00;100779.88;5011965;28;19921;-26
2022/06/08 04:31:15;;;;;;;;;;;;;;;13.70;100.00;100777.78;5005607;28;20013;-30
2022/06/08 04:33:47;;;;;;;;;;;;;;;13.76;100.00;100775.66;5008473;28;19928;-36
2022/06/08 04:36:21;;;;;;;;;;;;;;;13.80;100.00;100771.88;5003701;28;19926;-31
2022/06/08 04:38:49;;;;;;;;;;;;;;;13.84;100.00;100772.06;5026340;28;19921;-30
2022/06/08 04:41:18;;;;;;;;;;;;;;;13.87;100.00;100771.41;5009720;28;19921;-36
2022/06/08 04:43:47;;;;;;;;;;;;;;;13.91;100.00;100766.81;5010135;28;19979;-32
2022/06/08 04:46:17;;;;;;;;;;;;;;;13.96;100.00;100768.66;5010344;28;19921;-30
2022/06/08 04:48:49;;;;;;;;;;;;;;;13.98;100.00;100764.38;5009995;28;20004;-38
2022/06/08 04:51:20;;;;;;;;;;;;;;;14.00;100.00;100764.84;5010473;28;19921;-37
2022/06/08 04:53:49;;;;;;;;;;;;;;;14.01;100.00;100763.69;5009326;28;20004;-29
2022/06/08 04:56:19;;;;;;;;;;;;;;;14.04;100.00;100773.44;5026804;28;19925;-30
2022/06/08 04:58:53;;;;;;;;;;;;;;;14.05;100.00;100770.31;5010221;28;19921;-29
2022/06/08 05:01:22;;;;;;;;;;;;;;;14.08;100.00;100777.28;5009379;28;19927;-33
2022/06/08 05:03:52;;;;;;;;;;;;;;;14.10;100.00;100770.19;5010433;28;20008;-31
2022/06/08 05:06:20;;;;;;;;;;;;;;;14.11;100.00;100774.66;5010215;28;19921;-31
2022/06/08 05:08:49;;;;;;;;;;;;;;;14.16;100.00;100775.66;5009334;28;20445;-31
2022/06/08 05:11:20;;;;;;;;;;;;;;;14.18;100.00;100771.38;5010151;28;19921;-35
2022/06/08 05:13:49;;;;;;;;;;;;;;;14.20;100.00;100765.41;5009946;28;19932;-35
2022/06/08 05:16:18;;;;;;;;;;;;;;;14.26;100.00;100761.31;5003588;28;19925;-28
2022/06/08 05:18:50;;;;;;;;;;;;;;;14.30;100.00;100759.50;5008935;28;19925;-31
2022/06/08 05:21:20;;;;;;;;;;;;;;;14.32;100.00;100760.00;5011549;28;19980;-34
2022/06/08 05:23:50;;;;;;;;;;;;;;;14.38;100.00;100748.31;5010641;28;19921;-30
2022/06/08 05:26:30;;;;;;;;;;;;;;;14.44;100.00;100751.78;5012146;28;20055;-26
2022/06/08 05:28:58;;;;;;;;;;;;;;;14.51;100.00;100749.34;5011776;28;19921;-35
2022/06/08 05:31:30;;;;;;;;;;;;;;;14.58;100.00;100752.50;5012377;28;19926;-30
2022/06/08 05:33:59;;;;;;;;;;;;;;;14.64;100.00;100739.94;5012437;28;19933;-32
2022/06/08 05:36:28;;;;;;;;;;;;;;;14.70;100.00;100741.44;5011412;28;19921;-33
2022/06/08 05:39:01;;;;;;;;;;;;;;;14.82;100.00;100750.00;5013553;28;19925;-34
2022/06/08 05:41:33;;;;;;;;;;;;;;;14.92;100.00;100743.25;5012279;28;19979;-29
2022/06/08 05:44:01;;;;;;;;;;;;;;;15.02;100.00;100751.31;5011645;28;19976;-32
2022/06/08 05:46:30;;;;;;;;;;;;;;;15.10;100.00;100747.69;5012948;28;19967;-35
2022/06/08 05:49:05;;;;;;;;;;;;;;;15.14;100.00;100745.03;5011811;28;19972;-32
2022/06/08 05:51:35;;;;;;;;;;;;;;;15.21;100.00;100748.16;5011034;28;20001;-34
2022/06/08 05:54:04;;;;;;;;;;;;;;;15.26;100.00;100731.13;5012059;28;19929;-31
2022/06/08 05:56:32;;;;;;;;;;;;;;;15.34;100.00;100729.47;4997523;28;20394;-26
2022/06/08 05:59:03;;;;;;;;;;;;;;;15.41;100.00;100724.13;5011588;28;19967;-32
2022/06/08 06:01:33;;;;;;;;;;;;;;;15.50;100.00;100730.56;5008792;28;19928;-36
2022/06/08 06:04:05;;;;;;;;;;;;;;;15.62;100.00;100718.63;5010615;28;19921;-30
2022/06/08 06:06:35;;;;;;;;;;;;;;;15.75;100.00;100726.06;5012074;28;19983;-34
2022/06/08 06:09:05;;;;;;;;;;;;;;;15.84;100.00;100721.19;5012127;28;20422;-31
2022/06/08 06:11:34;;;;;;;;;;;;;;;15.96;100.00;100729.78;5011212;28;19931;-32
2022/06/08 06:14:03;;;;;;;;;;;;;;;16.06;100.00;100723.75;5012781;28;19921;-28
2022/06/08 06:16:33;;;;;;;;;;;;;;;16.16;100.00;100729.00;5011475;28;19967;-32
2022/06/08 06:19:01;;;;;;;;;;;;;;;16.20;100.00;100734.75;5012195;28;19955;-27
2022/06/08 06:21:36;;;;;;;;;;;;;;;16.26;100.00;100724.94;5011322;28;19959;-33
2022/06/08 06:24:19;;;;;;;;;;;;;;;16.31;100.00;100729.56;5009933;28;19925;-29
2022/06/08 06:27:07;;;;;;;;;;;;;;;16.40;100.00;100721.88;5011583;28;19937;-32
2022/06/08 06:29:55;;;;;;;;;;;;;;;16.52;100.00;100724.78;5011468;28;19932;-29
2022/06/08 06:32:36;;;;;;;;;;;;;;;16.64;100.00;100719.25;5011469;28;19921;-34
2022/06/08 06:35:08;;;;;;;;;;;;;;;16.79;100.00;100721.44;5010895;28;19940;-34
2022/06/08 06:37:37;;;;;;;;;;;;;;;16.97;100.00;100727.78;5011344;28;19921;-30
2022/06/08 06:40:07;;;;;;;;;;;;;;;17.13;100.00;100722.31;5010279;28;19932;-29
2022/06/08 06:42:35;;;;;;;;;;;;;;;17.26;100.00;100729.63;5011382;28;19943;-35
2022/06/08 06:45:21;;;;;;;;;;;;;;;17.38;100.00;100723.22;5012044;28;20023;-31
2022/06/08 06:47:56;;;;;;;;;;;;;;;17.51;100.00;100725.72;5010602;28;20290;-30
2022/06/08 06:50:26;;;;;;;;;;;;;;;17.63;100.00;100726.91;5010837;28;19926;-37
2022/06/08 06:52:59;;;;;;;;;;;;;;;17.70;100.00;100727.19;5010225;28;19976;-35
2022/06/08 06:55:35;;;;;;;;;;;;;;;17.73;100.00;100718.03;5010498;28;19925;-29
2022/06/08 06:58:13;;;;;;;;;;;;;;;17.83;100.00;100728.84;5010660;28;19957;-35
2022/06/08 07:00:42;;;;;;;;;;;;;;;17.87;100.00;100713.69;5009792;28;19937;-34
2022/06/08 07:03:12;;;;;;;;;;;;;;;17.98;100.00;100719.69;5010275;28;19925;-35
2022/06/08 07:05:43;;;;;;;;;;;;;;;18.06;100.00;100709.44;5010672;28;20417;-38
2022/06/08 07:08:14;;;;;;;;;;;;;;;18.21;100.00;100715.19;5009454;28;20347;-35
2022/06/08 07:10:43;;;;;;;;;;;;;;;18.35;100.00;100712.03;5010263;28;19922;-34
2022/06/08 07:13:13;;;;;;;;;;;;;;;18.50;100.00;100704.81;5010322;28;19921;-34
2022/06/08 07:15:41;;;;;;;;;;;;;;;18.64;100.00;100699.59;5009444;28;20394;-28
2022/06/08 07:18:09;;;;;;;;;;;;;;;18.85;100.00;100702.25;5011466;28;19929;-38
2022/06/08 07:20:37;;;;;;;;;;;;;;;19.01;100.00;100696.66;5010532;28;19927;-35
2022/06/08 07:23:05;;;;;;;;;;;;;;;19.26;100.00;100695.34;5008309;28;19925;-30
2022/06/08 07:25:34;;;;;;;;;;;;;;;19.57;100.00;100698.28;5011747;28;19937;-39
2022/06/08 07:28:02;;;;;;;;;;;;;;;19.79;100.00;100690.31;5011355;28;19926;-33
2022/06/08 07:30:30;;;;;;;;;;;;;;;20.01;100.00;100694.50;5011023;28;19922;-31
2022/06/08 07:32:57;;;;;;;;;;;;;;;20.23;100.00;100691.81;5010909;28;19921;-33
2022/06/08 07:35:25;;;;;;;;;;;;;;;20.37;99.42;100687.72;5010691;28;19931;-31
2022/06/08 07:37:52;;;;;;;;;;;;;;;20.45;100.00;100689.50;5011369;28;19932;-31
2022/06/08 07:40:20;;;;;;;;;;;;;;;20.54;99.55;100687.31;5011128;28;20438;-35
2022/06/08 07:42:49;;;;;;;;;;;;;;;20.56;93.93;100687.75;5010123;28;19921;-29
2022/06/08 07:45:17;;;;;;;;;;;;;;;20.43;92.85;100680.56;5010473;28;19931;-29
2022/06/08 07:50:30;;;;;;;;;;;;;;;20.43;95.62;100689.88;5010392;28;20005;-36
2022/06/08 07:52:57;;;;;;;;;;;;;;;20.38;93.50;100684.53;5010826;28;19937;-35
2022/06/08 07:55:25;;;;;;;;;;;;;;;20.46;93.22;100691.97;5011168;28;20323;-34
2022/06/08 07:57:54;;;;;;;;;;;;;;;20.51;94.75;100688.03;5009585;28;19932;-36
2022/06/08 08:00:22;;;;;;;;;;;;;;;20.57;96.02;100686.56;5010574;28;19922;-36
2022/06/08 08:02:50;;;;;;;;;;;;;;;20.44;90.62;100690.69;5010372;28;19972;-36
2022/06/08 08:05:19;;;;;;;;;;;;;;;20.25;92.59;100685.78;5011080;28;19964;-32
2022/06/08 08:07:47;;;;;;;;;;;;;;;20.09;94.64;100694.31;5011959;28;19921;-29
2022/06/08 08:10:16;;;;;;;;;;;;;;;19.99;94.33;100682.72;5011891;28;20276;-31
2022/06/08 08:12:44;;;;;;;;;;;;;;;19.92;94.84;100689.03;5009749;28;19925;-30
2022/06/08 08:15:13;;;;;;;;;;;;;;;19.89;96.86;100701.09;5010201;28;19921;-37
2022/06/08 08:17:41;;;;;;;;;;;;;;;19.86;97.09;100684.84;5010406;28;19932;-29
2022/06/08 08:20:10;;;;;;;;;;;;;;;19.84;97.10;100679.53;5011637;28;20027;-32
2022/06/08 08:22:38;;;;;;;;;;;;;;;19.79;95.93;100667.66;5011748;28;19922;-29
2022/06/08 08:25:06;;;;;;;;;;;;;;;19.75;98.30;100680.91;5011070;28;19925;-34
2022/06/08 08:27:33;;;;;;;;;;;;;;;19.72;97.00;100673.97;5011686;28;19926;-29
2022/06/08 08:30:01;;;;;;;;;;;;;;;19.74;98.78;100676.44;5011727;28;19952;-28
2022/06/08 08:32:30;;;;;;;;;;;;;;;19.76;98.12;100662.75;5010935;28;19928;-28
2022/06/08 08:34:58;;;;;;;;;;;;;;;19.72;96.54;100676.81;5011558;28;19928;-36
2022/06/08 08:37:25;;;;;;;;;;;;;;;19.68;97.58;100673.06;5011710;28;19921;-28
2022/06/08 08:39:53;;;;;;;;;;;;;;;19.60;96.85;100663.56;5010961;28;19932;-29
2022/06/08 08:42:24;;;;;;;;;;;;;;;19.55;97.19;100663.84;5011403;28;19925;-34
2022/06/08 08:44:53;;;;;;;;;;;;;;;19.56;98.76;100659.00;5011704;28;19953;-28
2022/06/08 08:47:28;;;;;;;;;;;;;;;19.55;98.08;100646.88;5010971;28;19933;-29
2022/06/08 08:49:58;;;;;;;;;;;;;;;19.60;99.50;100655.06;5010470;28;19922;-27
2022/06/08 08:52:32;;;;;;;;;;;;;;;19.60;98.28;100643.72;5011716;28;20089;-28
2022/06/08 08:55:03;;;;;;;;;;;;;;;19.65;99.43;100636.16;5008045;28;19971;-27
2022/06/08 08:57:33;;;;;;;;;;;;;;;19.77;99.75;100641.75;5015244;28;19936;-27
2022/06/08 09:00:02;;;;;;;;;;;;;;;19.91;99.14;100642.91;5015007;28;19929;-30
2022/06/08 09:05:18;;;;;;;;;;;;;;;20.25;97.73;100646.94;5015207;28;19991;-30
2022/06/08 09:07:46;;;;;;;;;;;;;;;20.32;94.62;100640.63;5014376;28;20399;-28
2022/06/08 09:10:17;;;;;;;;;;;;;;;20.36;94.46;100635.03;5015274;28;19968;-35
2022/06/08 09:12:45;;;;;;;;;;;;;;;20.46;92.57;100635.28;5013659;28;19960;-35
2022/06/08 09:15:15;;;;;;;;;;;;;;;20.59;93.48;100633.94;5014285;28;19921;-35
2022/06/08 09:17:52;;;;;;;;;;;;;;;20.71;91.45;100635.81;5014860;28;19921;-39
2022/06/08 09:20:27;;;;;;;;;;;;;;;20.81;93.61;100634.38;5015278;28;19975;-30
2022/06/08 09:22:55;;;;;;;;;;;;;;;20.91;93.37;100634.63;5014230;28;19922;-35
2022/06/08 09:25:27;;;;;;;;;;;;;;;20.94;90.85;100633.06;5014844;28;19982;-33
2022/06/08 09:27:57;;;;;;;;;;;;;;;20.88;90.97;100635.38;5014156;28;19928;-35
2022/06/08 09:30:25;;;;;;;;;;;;;;;20.79;89.68;100629.09;5010898;28;20314;-28
2022/06/08 09:33:00;;;;;;;;;;;;;;;20.61;89.81;100630.72;5010232;28;19922;-29
2022/06/08 09:35:31;;;;;;;;;;;;;;;20.41;88.59;100629.91;5014013;28;19928;-28
2022/06/08 09:38:00;;;;;;;;;;;;;;;20.30;91.19;100621.16;5014547;28;19925;-28
2022/06/08 09:40:38;;;;;;;;;;;;;;;20.14;89.50;100622.41;5014189;28;19928;-30
2022/06/08 09:43:17;;;;;;;;;;;;;;;20.08;93.53;100624.69;5013977;28;20063;-32
2022/06/08 09:45:49;;;;;;;;;;;;;;;19.99;90.41;100620.41;5014520;28;20378;-29
2022/06/08 09:51:27;;;;;;;;;;;;;;;19.78;92.77;100626.41;5012531;28;19921;-28
2022/06/08 09:54:01;;;;;;;;;;;;;;;19.73;93.01;100618.19;5014546;28;20412;-33
2022/06/08 09:56:32;;;;;;;;;;;;;;;19.66;93.07;100606.66;5013477;28;19928;-28
2022/06/08 09:59:15;;;;;;;;;;;;;;;19.61;94.40;100610.59;5014349;28;19940;-36
2022/06/08 10:01:45;;;;;;;;;;;;;;;19.56;93.33;100616.56;5014350;28;19965;-29
2022/06/08 10:04:20;;;;;;;;;;;;;;;19.41;92.50;100611.66;5013672;28;19931;-28
2022/06/08 10:06:57;;;;;;;;;;;;;;;19.33;94.50;100622.00;5013189;28;19921;-34
2022/06/08 10:09:28;;;;;;;;;;;;;;;19.26;95.02;100619.78;5014130;28;19921;-32
2022/06/08 10:11:59;;;;;;;;;;;;;;;19.16;96.99;100614.69;5013170;28;20000;-35
2022/06/08 10:14:33;;;;;;;;;;;;;;;19.07;98.05;100614.00;5014062;28;19931;-33
2022/06/08 10:17:04;;;;;;;;;;;;;;;18.93;98.84;100620.09;5010168;28;19944;-32
2022/06/08 10:19:34;;;;;;;;;;;;;;;18.84;99.49;100612.97;5009326;28;20365;-32
2022/06/08 10:22:05;;;;;;;;;;;;;;;18.79;100.00;100616.03;5013892;28;19921;-29
2022/06/08 10:24:36;;;;;;;;;;;;;;;18.78;100.00;100612.41;5013039;28;19928;-30
2022/06/08 10:27:09;;;;;;;;;;;;;;;18.71;100.00;100619.88;5013882;28;19967;-29
2022/06/08 10:29:40;;;;;;;;;;;;;;;18.64;100.00;100612.00;5013895;28;19922;-35
2022/06/08 10:32:14;;;;;;;;;;;;;;;18.60;100.00;100611.06;5011510;28;19925;-31
2022/06/08 10:34:42;;;;;;;;;;;;;;;18.55;100.00;100622.59;5013481;28;20391;-30
2022/06/08 10:37:15;;;;;;;;;;;;;;;18.46;100.00;100627.56;5013326;28;19922;-28
2022/06/08 10:39:43;;;;;;;;;;;;;;;18.29;100.00;100622.22;5012908;28;19948;-29
2022/06/08 10:42:40;;;;;;;;;;;;;;;18.14;100.00;100621.78;5013450;28;19921;-33
2022/06/08 10:45:35;;;;;;;;;;;;;;;18.02;100.00;100624.59;5012469;28;19967;-34
2022/06/08 10:48:23;;;;;;;;;;;;;;;17.94;100.00;100621.94;5010326;28;19944;-28
2022/06/08 10:51:16;;;;;;;;;;;;;;;17.85;100.00;100619.22;5011056;28;19921;-28
2022/06/08 10:56:53;;;;;;;;;;;;;;;17.76;100.00;100621.34;5012084;28;20537;-28
2022/06/08 10:59:22;;;;;;;;;;;;;;;17.74;100.00;100612.41;5012335;28;19935;-34
2022/06/08 11:02:21;;;;;;;;;;;;;;;17.69;100.00;100621.94;5012875;28;20383;-37
2022/06/08 11:04:51;;;;;;;;;;;;;;;17.66;100.00;100624.63;5003669;28;19972;-37
2022/06/08 11:07:20;;;;;;;;;;;;;;;17.66;100.00;100628.28;5012196;28;19921;-35
2022/06/08 11:09:57;;;;;;;;;;;;;;;17.66;100.00;100627.47;5011051;28;20375;-29
2022/06/08 11:12:40;;;;;;;;;;;;;;;17.69;100.00;100635.22;5011030;28;19921;-31
2022/06/08 11:15:21;;;;;;;;;;;;;;;17.70;100.00;100634.06;4995585;28;19930;-29
2022/06/08 11:17:52;;;;;;;;;;;;;;;17.74;100.00;100635.81;5001937;28;19925;-38
2022/06/08 11:20:23;;;;;;;;;;;;;;;17.74;100.00;100635.81;5010728;28;19921;-28
2022/06/08 11:22:55;;;;;;;;;;;;;;;17.75;100.00;100642.28;5000259;28;19925;-28
2022/06/08 11:25:27;;;;;;;;;;;;;;;17.77;100.00;100637.13;4999955;28;20330;-31
2022/06/08 11:28:14;;;;;;;;;;;;;;;17.74;100.00;100641.47;5010965;28;20020;-33
2022/06/08 11:30:49;;;;;;;;;;;;;;;17.70;100.00;100639.69;5002202;28;20052;-28
2022/06/08 11:33:17;;;;;;;;;;;;;;;17.60;100.00;100632.47;5001403;28;19921;-29
2022/06/08 11:36:03;;;;;;;;;;;;;;;17.52;100.00;100633.44;5010614;28;20013;-32
2022/06/08 11:38:46;;;;;;;;;;;;;;;17.42;100.00;100637.53;4999193;28;19925;-30
2022/06/08 11:41:27;;;;;;;;;;;;;;;17.41;100.00;100643.50;5009327;28;19926;-28
2022/06/08 11:43:56;;;;;;;;;;;;;;;17.35;100.00;100639.28;5009405;28;20334;-28
2022/06/08 11:46:26;;;;;;;;;;;;;;;17.27;100.00;100643.03;5010754;28;20039;-34
2022/06/08 11:48:56;;;;;;;;;;;;;;;17.20;100.00;100641.59;5009847;28;19929;-35
2022/06/08 11:51:32;;;;;;;;;;;;;;;17.22;100.00;100629.97;5010584;28;19921;-36
2022/06/08 11:54:05;;;;;;;;;;;;;;;17.23;100.00;100623.16;5000740;28;19987;-37
2022/06/08 11:56:40;;;;;;;;;;;;;;;17.23;100.00;100632.44;5008810;28;19932;-32
2022/06/08 11:59:18;;;;;;;;;;;;;;;17.20;100.00;100635.94;5000537;28;19921;-35
2022/06/08 12:01:51;;;;;;;;;;;;;;;17.20;100.00;100629.50;5010651;28;20016;-29
2022/06/08 12:04:20;;;;;;;;;;;;;;;17.14;100.00;100628.91;4999284;28;20299;-28
2022/06/08 12:06:49;;;;;;;;;;;;;;;17.06;100.00;100629.81;5010858;28;19929;-32
2022/06/08 12:09:19;;;;;;;;;;;;;;;17.01;100.00;100632.84;5011020;28;19980;-35
2022/06/08 12:11:49;;;;;;;;;;;;;;;16.98;100.00;100638.38;5009923;28;19926;-34
2022/06/08 12:14:18;;;;;;;;;;;;;;;16.94;100.00;100635.44;5010852;28;20294;-30
2022/06/08 12:16:53;;;;;;;;;;;;;;;16.90;100.00;100628.00;5010345;28;19921;-34
2022/06/08 12:19:22;;;;;;;;;;;;;;;16.88;100.00;100631.19;5007907;28;19964;-29
2022/06/08 12:22:07;;;;;;;;;;;;;;;16.88;100.00;100631.19;5006872;28;20311;-28
2022/06/08 12:24:34;;;;;;;;;;;;;;;16.82;100.00;100632.56;5010115;28;20402;-28
2022/06/08 12:27:18;;;;;;;;;;;;;;;16.70;100.00;100629.69;5010736;28;19925;-35
2022/06/08 12:29:52;;;;;;;;;;;;;;;16.61;100.00;100629.75;5005738;28;19926;-37
2022/06/08 12:32:22;;;;;;;;;;;;;;;16.58;100.00;100622.00;5009984;28;19921;-28
2022/06/08 12:34:51;;;;;;;;;;;;;;;16.52;100.00;100629.00;5007053;28;19927;-40
2022/06/08 12:37:23;;;;;;;;;;;;;;;16.46;100.00;100624.75;5007482;28;20007;-33
2022/06/08 12:39:50;;;;;;;;;;;;;;;16.37;100.00;100630.47;5009485;28;19921;-33
2022/06/08 12:42:25;;;;;;;;;;;;;;;16.33;100.00;100623.88;5005621;28;19925;-28
2022/06/08 12:45:02;;;;;;;;;;;;;;;16.35;100.00;100613.09;5007925;28;19999;-28
2022/06/08 12:47:39;;;;;;;;;;;;;;;16.39;100.00;100607.56;5009042;28;19928;-31
2022/06/08 12:50:13;;;;;;;;;;;;;;;16.41;100.00;100605.22;5009698;28;19926;-32
2022/06/08 12:52:41;;;;;;;;;;;;;;;16.42;100.00;100604.88;5009772;28;20024;-28
2022/06/08 12:55:13;;;;;;;;;;;;;;;16.39;100.00;100596.31;5008837;28;19932;-37
2022/06/08 12:57:42;;;;;;;;;;;;;;;16.38;100.00;100595.50;5009683;28;20008;-28
2022/06/08 13:00:14;;;;;;;;;;;;;;;16.33;100.00;100581.63;5009392;28;19925;-28
2022/06/08 13:02:43;;;;;;;;;;;;;;;16.33;100.00;100581.63;5010274;28;19922;-28
2022/06/08 13:05:17;;;;;;;;;;;;;;;16.38;100.00;100567.34;5009303;28;19944;-28